sensor_id;sensor_type;location;lat;lon;timestamp;P1;durP1;ratioP1;P2;durP2;ratioP2
74945;SDS011;63509;45.250;38.102;2024-03-25T00:01:42;14.32;;;8.38;;
74945;SDS011;63509;45.250;38.102;2024-03-25T00:04:08;18.35;;;8.77;;
74945;SDS011;63509;45.250;38.102;2024-03-25T00:06:34;23.40;;;8.73;;
74945;SDS011;63509;45.250;38.102;2024-03-25T00:09:01;18.30;;;8.45;;
74945;SDS011;63509;45.250;38.102;2024-03-25T00:11:27;18.45;;;9.15;;
74945;SDS011;63509;45.250;38.102;2024-03-25T00:13:53;21.70;;;7.72;;
74945;SDS011;63509;45.250;38.102;2024-03-25T00:16:19;20.80;;;7.88;;
74945;SDS011;63509;45.250;38.102;2024-03-25T00:18:45;27.05;;;7.43;;
74945;SDS011;63509;45.250;38.102;2024-03-25T00:21:11;25.92;;;6.90;;
74945;SDS011;63509;45.250;38.102;2024-03-25T00:23:38;14.50;;;7.57;;
74945;SDS011;63509;45.250;38.102;2024-03-25T00:26:04;15.02;;;6.22;;
74945;SDS011;63509;45.250;38.102;2024-03-25T00:28:30;12.52;;;6.70;;
74945;SDS011;63509;45.250;38.102;2024-03-25T00:30:56;14.95;;;6.15;;
74945;SDS011;63509;45.250;38.102;2024-03-25T00:33:23;14.23;;;6.07;;
74945;SDS011;63509;45.250;38.102;2024-03-25T00:35:49;8.43;;;5.05;;
74945;SDS011;63509;45.250;38.102;2024-03-25T00:38:15;16.05;;;6.47;;
74945;SDS011;63509;45.250;38.102;2024-03-25T00:40:42;15.10;;;7.13;;
74945;SDS011;63509;45.250;38.102;2024-03-25T00:43:08;16.65;;;6.55;;
74945;SDS011;63509;45.250;38.102;2024-03-25T00:45:34;22.08;;;6.57;;
74945;SDS011;63509;45.250;38.102;2024-03-25T00:48:00;13.55;;;6.10;;
74945;SDS011;63509;45.250;38.102;2024-03-25T00:50:26;18.65;;;5.65;;
74945;SDS011;63509;45.250;38.102;2024-03-25T00:52:52;13.05;;;5.40;;
74945;SDS011;63509;45.250;38.102;2024-03-25T00:55:19;25.67;;;6.03;;
74945;SDS011;63509;45.250;38.102;2024-03-25T00:57:44;21.70;;;5.45;;
74945;SDS011;63509;45.250;38.102;2024-03-25T01:00:11;8.52;;;5.07;;
74945;SDS011;63509;45.250;38.102;2024-03-25T01:02:38;13.93;;;6.05;;
74945;SDS011;63509;45.250;38.102;2024-03-25T01:05:04;11.40;;;6.63;;
74945;SDS011;63509;45.250;38.102;2024-03-25T01:07:31;20.67;;;6.00;;
74945;SDS011;63509;45.250;38.102;2024-03-25T01:09:57;16.58;;;4.88;;
74945;SDS011;63509;45.250;38.102;2024-03-25T01:12:24;12.82;;;7.03;;
74945;SDS011;63509;45.250;38.102;2024-03-25T01:14:51;13.68;;;6.05;;
74945;SDS011;63509;45.250;38.102;2024-03-25T01:17:17;8.40;;;4.97;;
74945;SDS011;63509;45.250;38.102;2024-03-25T01:19:43;14.00;;;5.85;;
74945;SDS011;63509;45.250;38.102;2024-03-25T01:22:09;19.05;;;5.38;;
74945;SDS011;63509;45.250;38.102;2024-03-25T01:24:35;12.07;;;5.45;;
74945;SDS011;63509;45.250;38.102;2024-03-25T01:27:01;9.98;;;5.35;;
74945;SDS011;63509;45.250;38.102;2024-03-25T01:29:28;14.60;;;4.40;;
74945;SDS011;63509;45.250;38.102;2024-03-25T01:31:54;12.50;;;5.13;;
74945;SDS011;63509;45.250;38.102;2024-03-25T01:34:20;21.98;;;4.93;;
74945;SDS011;63509;45.250;38.102;2024-03-25T01:36:46;7.68;;;5.00;;
74945;SDS011;63509;45.250;38.102;2024-03-25T01:39:12;13.00;;;4.55;;
74945;SDS011;63509;45.250;38.102;2024-03-25T01:41:39;11.90;;;5.00;;
74945;SDS011;63509;45.250;38.102;2024-03-25T01:44:05;15.55;;;5.00;;
74945;SDS011;63509;45.250;38.102;2024-03-25T01:46:31;17.20;;;4.82;;
74945;SDS011;63509;45.250;38.102;2024-03-25T01:48:57;17.35;;;5.13;;
74945;SDS011;63509;45.250;38.102;2024-03-25T01:51:24;8.20;;;5.47;;
74945;SDS011;63509;45.250;38.102;2024-03-25T01:53:51;10.77;;;6.60;;
74945;SDS011;63509;45.250;38.102;2024-03-25T01:56:19;11.13;;;5.15;;
74945;SDS011;63509;45.250;38.102;2024-03-25T01:58:47;13.05;;;5.60;;
74945;SDS011;63509;45.250;38.102;2024-03-25T02:01:14;11.13;;;5.07;;
74945;SDS011;63509;45.250;38.102;2024-03-25T02:03:41;18.13;;;5.45;;
74945;SDS011;63509;45.250;38.102;2024-03-25T02:06:12;11.52;;;3.92;;
74945;SDS011;63509;45.250;38.102;2024-03-25T02:08:41;18.38;;;5.57;;
74945;SDS011;63509;45.250;38.102;2024-03-25T02:11:07;19.08;;;6.60;;
74945;SDS011;63509;45.250;38.102;2024-03-25T02:13:35;15.15;;;5.75;;
74945;SDS011;63509;45.250;38.102;2024-03-25T02:16:01;7.90;;;4.78;;
74945;SDS011;63509;45.250;38.102;2024-03-25T02:18:29;11.82;;;5.40;;
74945;SDS011;63509;45.250;38.102;2024-03-25T02:23:24;8.45;;;4.82;;
74945;SDS011;63509;45.250;38.102;2024-03-25T02:25:54;10.13;;;4.32;;
74945;SDS011;63509;45.250;38.102;2024-03-25T02:28:20;16.65;;;4.35;;
74945;SDS011;63509;45.250;38.102;2024-03-25T02:30:46;11.32;;;4.28;;
74945;SDS011;63509;45.250;38.102;2024-03-25T02:33:13;10.55;;;5.75;;
74945;SDS011;63509;45.250;38.102;2024-03-25T02:35:40;11.57;;;4.97;;
74945;SDS011;63509;45.250;38.102;2024-03-25T02:38:08;7.50;;;4.95;;
74945;SDS011;63509;45.250;38.102;2024-03-25T02:40:35;19.27;;;4.95;;
74945;SDS011;63509;45.250;38.102;2024-03-25T02:43:01;11.63;;;4.97;;
74945;SDS011;63509;45.250;38.102;2024-03-25T02:45:28;11.43;;;4.68;;
74945;SDS011;63509;45.250;38.102;2024-03-25T02:47:54;8.85;;;5.22;;
74945;SDS011;63509;45.250;38.102;2024-03-25T02:50:21;11.55;;;4.22;;
74945;SDS011;63509;45.250;38.102;2024-03-25T02:52:47;10.40;;;6.05;;
74945;SDS011;63509;45.250;38.102;2024-03-25T02:55:13;11.52;;;5.68;;
74945;SDS011;63509;45.250;38.102;2024-03-25T02:57:39;20.45;;;5.55;;
74945;SDS011;63509;45.250;38.102;2024-03-25T03:00:06;12.48;;;4.75;;
74945;SDS011;63509;45.250;38.102;2024-03-25T03:02:34;27.23;;;5.35;;
74945;SDS011;63509;45.250;38.102;2024-03-25T03:05:00;13.32;;;6.75;;
74945;SDS011;63509;45.250;38.102;2024-03-25T03:07:28;15.75;;;6.50;;
74945;SDS011;63509;45.250;38.102;2024-03-25T03:09:53;20.05;;;5.80;;
74945;SDS011;63509;45.250;38.102;2024-03-25T03:12:20;39.42;;;8.25;;
74945;SDS011;63509;45.250;38.102;2024-03-25T03:14:46;19.08;;;6.10;;
74945;SDS011;63509;45.250;38.102;2024-03-25T03:17:12;14.68;;;7.07;;
74945;SDS011;63509;45.250;38.102;2024-03-25T03:19:39;18.05;;;6.68;;
74945;SDS011;63509;45.250;38.102;2024-03-25T03:22:05;13.18;;;7.15;;
74945;SDS011;63509;45.250;38.102;2024-03-25T03:24:31;31.48;;;7.80;;
74945;SDS011;63509;45.250;38.102;2024-03-25T03:26:57;13.00;;;7.18;;
74945;SDS011;63509;45.250;38.102;2024-03-25T03:29:24;22.83;;;8.07;;
74945;SDS011;63509;45.250;38.102;2024-03-25T03:31:50;19.90;;;8.00;;
74945;SDS011;63509;45.250;38.102;2024-03-25T03:34:16;16.75;;;8.20;;
74945;SDS011;63509;45.250;38.102;2024-03-25T03:36:42;13.70;;;7.57;;
74945;SDS011;63509;45.250;38.102;2024-03-25T03:39:08;14.27;;;7.10;;
74945;SDS011;63509;45.250;38.102;2024-03-25T03:41:35;16.02;;;7.63;;
74945;SDS011;63509;45.250;38.102;2024-03-25T03:44:02;22.60;;;8.95;;
74945;SDS011;63509;45.250;38.102;2024-03-25T03:46:28;34.97;;;10.60;;
74945;SDS011;63509;45.250;38.102;2024-03-25T03:48:54;23.08;;;9.30;;
74945;SDS011;63509;45.250;38.102;2024-03-25T03:51:20;26.77;;;9.48;;
74945;SDS011;63509;45.250;38.102;2024-03-25T03:53:47;25.00;;;10.38;;
74945;SDS011;63509;45.250;38.102;2024-03-25T03:56:13;15.45;;;9.07;;
74945;SDS011;63509;45.250;38.102;2024-03-25T03:58:41;16.42;;;9.15;;
74945;SDS011;63509;45.250;38.102;2024-03-25T04:01:19;17.42;;;10.90;;
74945;SDS011;63509;45.250;38.102;2024-03-25T04:03:46;24.48;;;11.70;;
74945;SDS011;63509;45.250;38.102;2024-03-25T04:06:12;23.50;;;9.70;;
74945;SDS011;63509;45.250;38.102;2024-03-25T04:08:41;16.50;;;7.63;;
74945;SDS011;63509;45.250;38.102;2024-03-25T04:11:07;33.25;;;10.63;;
74945;SDS011;63509;45.250;38.102;2024-03-25T04:13:35;12.73;;;8.75;;
74945;SDS011;63509;45.250;38.102;2024-03-25T04:16:04;20.67;;;10.95;;
74945;SDS011;63509;45.250;38.102;2024-03-25T04:18:32;26.95;;;10.65;;
74945;SDS011;63509;45.250;38.102;2024-03-25T04:20:58;39.55;;;11.07;;
74945;SDS011;63509;45.250;38.102;2024-03-25T04:23:25;35.15;;;11.82;;
74945;SDS011;63509;45.250;38.102;2024-03-25T04:25:51;35.80;;;12.13;;
74945;SDS011;63509;45.250;38.102;2024-03-25T04:28:18;38.78;;;14.25;;
74945;SDS011;63509;45.250;38.102;2024-03-25T04:30:50;23.02;;;12.38;;
74945;SDS011;63509;45.250;38.102;2024-03-25T04:33:16;22.27;;;12.13;;
74945;SDS011;63509;45.250;38.102;2024-03-25T04:35:42;30.60;;;14.98;;
74945;SDS011;63509;45.250;38.102;2024-03-25T04:38:09;24.50;;;13.57;;
74945;SDS011;63509;45.250;38.102;2024-03-25T04:51:44;18.73;;;9.02;;
74945;SDS011;63509;45.250;38.102;2024-03-25T04:54:11;28.50;;;10.05;;
74945;SDS011;63509;45.250;38.102;2024-03-25T04:56:37;38.25;;;10.38;;
74945;SDS011;63509;45.250;38.102;2024-03-25T04:59:05;17.70;;;9.93;;
74945;SDS011;63509;45.250;38.102;2024-03-25T05:01:31;25.70;;;11.07;;
74945;SDS011;63509;45.250;38.102;2024-03-25T05:03:57;28.05;;;12.27;;
74945;SDS011;63509;45.250;38.102;2024-03-25T05:06:23;31.17;;;12.48;;
74945;SDS011;63509;45.250;38.102;2024-03-25T05:08:49;23.00;;;13.27;;
74945;SDS011;63509;45.250;38.102;2024-03-25T05:11:15;26.27;;;10.88;;
74945;SDS011;63509;45.250;38.102;2024-03-25T05:13:42;25.05;;;10.65;;
74945;SDS011;63509;45.250;38.102;2024-03-25T05:16:10;22.42;;;10.15;;
74945;SDS011;63509;45.250;38.102;2024-03-25T05:18:36;34.47;;;12.05;;
74945;SDS011;63509;45.250;38.102;2024-03-25T05:21:02;30.40;;;10.48;;
74945;SDS011;63509;45.250;38.102;2024-03-25T05:23:28;81.82;;;27.20;;
74945;SDS011;63509;45.250;38.102;2024-03-25T05:25:54;62.13;;;20.15;;
74945;SDS011;63509;45.250;38.102;2024-03-25T05:28:21;28.77;;;14.20;;
74945;SDS011;63509;45.250;38.102;2024-03-25T05:30:47;22.20;;;10.57;;
74945;SDS011;63509;45.250;38.102;2024-03-25T05:33:15;26.50;;;12.48;;
74945;SDS011;63509;45.250;38.102;2024-03-25T05:35:44;20.25;;;10.95;;
74945;SDS011;63509;45.250;38.102;2024-03-25T05:38:10;24.20;;;10.23;;
74945;SDS011;63509;45.250;38.102;2024-03-25T05:40:36;25.77;;;10.10;;
74945;SDS011;63509;45.250;38.102;2024-03-25T05:43:03;25.55;;;10.60;;
74945;SDS011;63509;45.250;38.102;2024-03-25T05:45:30;40.83;;;18.52;;
74945;SDS011;63509;45.250;38.102;2024-03-25T05:47:56;40.35;;;14.88;;
74945;SDS011;63509;45.250;38.102;2024-03-25T05:50:22;20.38;;;9.93;;
74945;SDS011;63509;45.250;38.102;2024-03-25T05:52:48;37.13;;;18.45;;
74945;SDS011;63509;45.250;38.102;2024-03-25T05:55:14;51.63;;;19.83;;
74945;SDS011;63509;45.250;38.102;2024-03-25T05:57:40;35.40;;;18.85;;
74945;SDS011;63509;45.250;38.102;2024-03-25T06:00:07;27.70;;;14.50;;
74945;SDS011;63509;45.250;38.102;2024-03-25T06:02:42;19.48;;;8.48;;
74945;SDS011;63509;45.250;38.102;2024-03-25T06:05:08;30.35;;;8.35;;
74945;SDS011;63509;45.250;38.102;2024-03-25T06:07:34;18.13;;;6.75;;
74945;SDS011;63509;45.250;38.102;2024-03-25T06:10:01;20.02;;;7.30;;
74945;SDS011;63509;45.250;38.102;2024-03-25T06:12:27;15.23;;;6.85;;
74945;SDS011;63509;45.250;38.102;2024-03-25T06:14:53;20.30;;;6.05;;
74945;SDS011;63509;45.250;38.102;2024-03-25T06:17:19;16.98;;;7.25;;
74945;SDS011;63509;45.250;38.102;2024-03-25T06:19:45;13.40;;;6.05;;
74945;SDS011;63509;45.250;38.102;2024-03-25T06:22:11;17.20;;;6.45;;
74945;SDS011;63509;45.250;38.102;2024-03-25T06:24:37;21.40;;;6.93;;
74945;SDS011;63509;45.250;38.102;2024-03-25T06:27:03;18.52;;;4.82;;
74945;SDS011;63509;45.250;38.102;2024-03-25T06:29:30;14.07;;;5.20;;
74945;SDS011;63509;45.250;38.102;2024-03-25T06:31:56;10.85;;;3.78;;
74945;SDS011;63509;45.250;38.102;2024-03-25T06:34:40;15.30;;;4.80;;
74945;SDS011;63509;45.250;38.102;2024-03-25T06:37:06;14.40;;;5.55;;
74945;SDS011;63509;45.250;38.102;2024-03-25T06:39:34;14.73;;;5.78;;
74945;SDS011;63509;45.250;38.102;2024-03-25T06:42:00;30.70;;;7.75;;
74945;SDS011;63509;45.250;38.102;2024-03-25T06:44:26;14.80;;;5.45;;
74945;SDS011;63509;45.250;38.102;2024-03-25T06:46:52;13.02;;;4.50;;
74945;SDS011;63509;45.250;38.102;2024-03-25T06:49:18;12.13;;;5.13;;
74945;SDS011;63509;45.250;38.102;2024-03-25T06:51:44;14.60;;;4.80;;
74945;SDS011;63509;45.250;38.102;2024-03-25T06:54:10;11.70;;;5.20;;
74945;SDS011;63509;45.250;38.102;2024-03-25T06:56:36;18.13;;;4.78;;
74945;SDS011;63509;45.250;38.102;2024-03-25T06:59:02;7.85;;;3.22;;
74945;SDS011;63509;45.250;38.102;2024-03-25T07:01:28;14.55;;;6.47;;
74945;SDS011;63509;45.250;38.102;2024-03-25T07:03:55;16.17;;;5.55;;
74945;SDS011;63509;45.250;38.102;2024-03-25T07:06:21;11.50;;;5.30;;
74945;SDS011;63509;45.250;38.102;2024-03-25T07:08:48;18.70;;;6.30;;
74945;SDS011;63509;45.250;38.102;2024-03-25T07:11:14;37.45;;;8.85;;
74945;SDS011;63509;45.250;38.102;2024-03-25T07:13:40;12.88;;;5.95;;
74945;SDS011;63509;45.250;38.102;2024-03-25T07:16:07;25.20;;;6.38;;
74945;SDS011;63509;45.250;38.102;2024-03-25T07:18:33;20.38;;;6.32;;
74945;SDS011;63509;45.250;38.102;2024-03-25T07:20:59;13.05;;;5.25;;
74945;SDS011;63509;45.250;38.102;2024-03-25T07:23:25;14.75;;;7.13;;
74945;SDS011;63509;45.250;38.102;2024-03-25T07:25:51;18.35;;;5.40;;
74945;SDS011;63509;45.250;38.102;2024-03-25T07:28:17;19.08;;;5.78;;
74945;SDS011;63509;45.250;38.102;2024-03-25T07:30:44;7.45;;;3.47;;
74945;SDS011;63509;45.250;38.102;2024-03-25T07:33:10;12.18;;;3.20;;
74945;SDS011;63509;45.250;38.102;2024-03-25T07:35:36;12.65;;;3.78;;
74945;SDS011;63509;45.250;38.102;2024-03-25T07:38:02;9.52;;;3.10;;
74945;SDS011;63509;45.250;38.102;2024-03-25T07:40:28;22.20;;;3.47;;
74945;SDS011;63509;45.250;38.102;2024-03-25T07:42:54;18.38;;;2.92;;
74945;SDS011;63509;45.250;38.102;2024-03-25T07:45:21;6.45;;;1.60;;
74945;SDS011;63509;45.250;38.102;2024-03-25T07:47:48;10.88;;;2.67;;
74945;SDS011;63509;45.250;38.102;2024-03-25T07:50:14;10.82;;;1.92;;
74945;SDS011;63509;45.250;38.102;2024-03-25T07:52:41;5.18;;;2.08;;
74945;SDS011;63509;45.250;38.102;2024-03-25T07:55:08;7.35;;;1.80;;
74945;SDS011;63509;45.250;38.102;2024-03-25T07:57:34;8.00;;;1.42;;
74945;SDS011;63509;45.250;38.102;2024-03-25T08:00:01;4.95;;;1.00;;
74945;SDS011;63509;45.250;38.102;2024-03-25T08:02:37;4.13;;;1.30;;
74945;SDS011;63509;45.250;38.102;2024-03-25T08:05:03;2.38;;;1.00;;
74945;SDS011;63509;45.250;38.102;2024-03-25T08:07:31;5.05;;;2.00;;
74945;SDS011;63509;45.250;38.102;2024-03-25T08:09:57;6.30;;;1.92;;
74945;SDS011;63509;45.250;38.102;2024-03-25T08:12:23;2.50;;;1.00;;
74945;SDS011;63509;45.250;38.102;2024-03-25T08:14:49;7.93;;;1.58;;
74945;SDS011;63509;45.250;38.102;2024-03-25T08:17:15;12.43;;;1.65;;
74945;SDS011;63509;45.250;38.102;2024-03-25T08:19:41;5.65;;;0.80;;
74945;SDS011;63509;45.250;38.102;2024-03-25T08:22:08;9.13;;;1.30;;
74945;SDS011;63509;45.250;38.102;2024-03-25T08:24:34;10.60;;;1.48;;
74945;SDS011;63509;45.250;38.102;2024-03-25T08:27:00;4.28;;;0.80;;
74945;SDS011;63509;45.250;38.102;2024-03-25T08:29:26;3.83;;;2.03;;
74945;SDS011;63509;45.250;38.102;2024-03-25T08:31:52;5.40;;;1.33;;
74945;SDS011;63509;45.250;38.102;2024-03-25T08:34:18;3.70;;;1.02;;
74945;SDS011;63509;45.250;38.102;2024-03-25T08:36:45;9.40;;;1.05;;
74945;SDS011;63509;45.250;38.102;2024-03-25T08:39:11;14.55;;;3.00;;
74945;SDS011;63509;45.250;38.102;2024-03-25T08:41:37;9.25;;;1.85;;
74945;SDS011;63509;45.250;38.102;2024-03-25T08:44:03;17.33;;;1.52;;
74945;SDS011;63509;45.250;38.102;2024-03-25T08:46:29;2.03;;;0.82;;
74945;SDS011;63509;45.250;38.102;2024-03-25T08:48:55;4.90;;;0.80;;
74945;SDS011;63509;45.250;38.102;2024-03-25T08:51:21;8.57;;;1.50;;
74945;SDS011;63509;45.250;38.102;2024-03-25T08:53:47;1.80;;;0.93;;
74945;SDS011;63509;45.250;38.102;2024-03-25T08:56:13;5.88;;;0.65;;
74945;SDS011;63509;45.250;38.102;2024-03-25T08:58:39;7.15;;;0.68;;
74945;SDS011;63509;45.250;38.102;2024-03-25T09:01:05;2.33;;;0.50;;
74945;SDS011;63509;45.250;38.102;2024-03-25T09:03:32;12.68;;;1.27;;
74945;SDS011;63509;45.250;38.102;2024-03-25T09:05:58;1.88;;;0.70;;
74945;SDS011;63509;45.250;38.102;2024-03-25T09:08:25;1.70;;;0.60;;
74945;SDS011;63509;45.250;38.102;2024-03-25T09:10:52;6.03;;;0.90;;
74945;SDS011;63509;45.250;38.102;2024-03-25T09:13:32;4.68;;;1.17;;
74945;SDS011;63509;45.250;38.102;2024-03-25T09:15:58;4.43;;;0.77;;
74945;SDS011;63509;45.250;38.102;2024-03-25T09:18:24;1.48;;;0.60;;
74945;SDS011;63509;45.250;38.102;2024-03-25T09:20:52;2.50;;;0.60;;
74945;SDS011;63509;45.250;38.102;2024-03-25T09:23:21;3.45;;;1.30;;
74945;SDS011;63509;45.250;38.102;2024-03-25T09:25:50;5.47;;;1.40;;
74945;SDS011;63509;45.250;38.102;2024-03-25T09:28:17;5.25;;;0.93;;
74945;SDS011;63509;45.250;38.102;2024-03-25T09:30:43;8.70;;;0.98;;
74945;SDS011;63509;45.250;38.102;2024-03-25T09:33:09;3.58;;;0.77;;
74945;SDS011;63509;45.250;38.102;2024-03-25T09:35:35;2.33;;;0.65;;
74945;SDS011;63509;45.250;38.102;2024-03-25T09:38:02;4.50;;;1.00;;
74945;SDS011;63509;45.250;38.102;2024-03-25T09:40:28;7.00;;;0.88;;
74945;SDS011;63509;45.250;38.102;2024-03-25T09:42:57;4.50;;;1.15;;
74945;SDS011;63509;45.250;38.102;2024-03-25T09:45:27;5.50;;;0.73;;
74945;SDS011;63509;45.250;38.102;2024-03-25T09:47:55;4.65;;;1.42;;
74945;SDS011;63509;45.250;38.102;2024-03-25T09:50:21;16.83;;;2.60;;
74945;SDS011;63509;45.250;38.102;2024-03-25T09:52:48;15.35;;;2.60;;
74945;SDS011;63509;45.250;38.102;2024-03-25T09:55:15;4.65;;;0.65;;
74945;SDS011;63509;45.250;38.102;2024-03-25T09:57:45;4.07;;;1.23;;
74945;SDS011;63509;45.250;38.102;2024-03-25T10:00:11;3.05;;;1.20;;
74945;SDS011;63509;45.250;38.102;2024-03-25T10:02:38;10.68;;;1.33;;
74945;SDS011;63509;45.250;38.102;2024-03-25T10:07:32;6.65;;;1.00;;
74945;SDS011;63509;45.250;38.102;2024-03-25T10:10:02;4.07;;;0.85;;
74945;SDS011;63509;45.250;38.102;2024-03-25T10:12:30;12.98;;;2.58;;
74945;SDS011;63509;45.250;38.102;2024-03-25T10:14:57;6.97;;;0.80;;
74945;SDS011;63509;45.250;38.102;2024-03-25T10:17:24;3.50;;;1.00;;
74945;SDS011;63509;45.250;38.102;2024-03-25T10:19:50;11.27;;;1.13;;
74945;SDS011;63509;45.250;38.102;2024-03-25T10:22:16;7.22;;;1.75;;
74945;SDS011;63509;45.250;38.102;2024-03-25T10:24:42;4.18;;;0.88;;
74945;SDS011;63509;45.250;38.102;2024-03-25T10:29:43;5.78;;;0.95;;
74945;SDS011;63509;45.250;38.102;2024-03-25T10:32:09;8.25;;;1.30;;
74945;SDS011;63509;45.250;38.102;2024-03-25T10:34:37;5.05;;;0.55;;
74945;SDS011;63509;45.250;38.102;2024-03-25T10:37:03;6.15;;;0.70;;
74945;SDS011;63509;45.250;38.102;2024-03-25T10:39:41;10.00;;;1.65;;
74945;SDS011;63509;45.250;38.102;2024-03-25T10:42:19;8.00;;;1.20;;
74945;SDS011;63509;45.250;38.102;2024-03-25T10:44:47;20.27;;;2.17;;
74945;SDS011;63509;45.250;38.102;2024-03-25T10:47:18;2.88;;;0.88;;
74945;SDS011;63509;45.250;38.102;2024-03-25T10:52:21;4.15;;;0.93;;
74945;SDS011;63509;45.250;38.102;2024-03-25T10:54:49;4.60;;;1.27;;
74945;SDS011;63509;45.250;38.102;2024-03-25T10:57:16;5.80;;;0.85;;
74945;SDS011;63509;45.250;38.102;2024-03-25T11:00:56;3.92;;;0.80;;
74945;SDS011;63509;45.250;38.102;2024-03-25T11:03:46;10.05;;;1.42;;
74945;SDS011;63509;45.250;38.102;2024-03-25T11:06:14;3.15;;;0.80;;
74945;SDS011;63509;45.250;38.102;2024-03-25T11:08:44;2.45;;;0.90;;
74945;SDS011;63509;45.250;38.102;2024-03-25T11:11:23;4.55;;;1.42;;
74945;SDS011;63509;45.250;38.102;2024-03-25T11:13:49;10.70;;;1.33;;
74945;SDS011;63509;45.250;38.102;2024-03-25T11:16:26;7.25;;;1.45;;
74945;SDS011;63509;45.250;38.102;2024-03-25T11:18:54;3.47;;;1.10;;
74945;SDS011;63509;45.250;38.102;2024-03-25T11:21:26;10.40;;;1.80;;
74945;SDS011;63509;45.250;38.102;2024-03-25T11:23:52;9.13;;;1.80;;
74945;SDS011;63509;45.250;38.102;2024-03-25T11:26:19;3.30;;;0.98;;
74945;SDS011;63509;45.250;38.102;2024-03-25T11:28:50;1.98;;;0.90;;
74945;SDS011;63509;45.250;38.102;2024-03-25T11:31:22;4.25;;;0.80;;
74945;SDS011;63509;45.250;38.102;2024-03-25T11:33:52;4.95;;;1.40;;
74945;SDS011;63509;45.250;38.102;2024-03-25T11:36:18;8.57;;;4.15;;
74945;SDS011;63509;45.250;38.102;2024-03-25T11:39:00;6.35;;;1.95;;
74945;SDS011;63509;45.250;38.102;2024-03-25T11:41:30;3.60;;;1.00;;
74945;SDS011;63509;45.250;38.102;2024-03-25T11:43:58;9.50;;;1.50;;
74945;SDS011;63509;45.250;38.102;2024-03-25T11:46:24;9.15;;;1.35;;
74945;SDS011;63509;45.250;38.102;2024-03-25T11:48:51;25.77;;;17.17;;
74945;SDS011;63509;45.250;38.102;2024-03-25T11:51:20;4.55;;;2.55;;
74945;SDS011;63509;45.250;38.102;2024-03-25T11:53:50;4.38;;;1.38;;
74945;SDS011;63509;45.250;38.102;2024-03-25T11:56:16;1.85;;;0.77;;
74945;SDS011;63509;45.250;38.102;2024-03-25T11:58:42;1.83;;;0.90;;
74945;SDS011;63509;45.250;38.102;2024-03-25T12:01:11;59.55;;;34.67;;
74945;SDS011;63509;45.250;38.102;2024-03-25T12:03:37;63.38;;;30.50;;
74945;SDS011;63509;45.250;38.102;2024-03-25T12:06:03;8.93;;;2.83;;
74945;SDS011;63509;45.250;38.102;2024-03-25T12:08:31;5.60;;;1.50;;
74945;SDS011;63509;45.250;38.102;2024-03-25T12:10:58;7.90;;;0.98;;
74945;SDS011;63509;45.250;38.102;2024-03-25T12:13:43;30.25;;;5.47;;
74945;SDS011;63509;45.250;38.102;2024-03-25T12:16:10;3.90;;;1.10;;
74945;SDS011;63509;45.250;38.102;2024-03-25T12:18:36;7.43;;;1.20;;
74945;SDS011;63509;45.250;38.102;2024-03-25T12:21:07;4.72;;;1.45;;
74945;SDS011;63509;45.250;38.102;2024-03-25T12:23:34;9.93;;;1.40;;
74945;SDS011;63509;45.250;38.102;2024-03-25T12:26:00;6.97;;;1.88;;
74945;SDS011;63509;45.250;38.102;2024-03-25T12:28:28;8.40;;;2.08;;
74945;SDS011;63509;45.250;38.102;2024-03-25T12:30:56;4.38;;;0.95;;
74945;SDS011;63509;45.250;38.102;2024-03-25T12:33:22;4.93;;;1.20;;
74945;SDS011;63509;45.250;38.102;2024-03-25T12:35:50;12.52;;;2.20;;
74945;SDS011;63509;45.250;38.102;2024-03-25T12:38:24;3.00;;;0.88;;
74945;SDS011;63509;45.250;38.102;2024-03-25T12:40:51;3.38;;;0.80;;
74945;SDS011;63509;45.250;38.102;2024-03-25T12:43:17;4.35;;;1.45;;
74945;SDS011;63509;45.250;38.102;2024-03-25T12:45:43;6.15;;;1.20;;
74945;SDS011;63509;45.250;38.102;2024-03-25T12:48:10;5.38;;;1.50;;
74945;SDS011;63509;45.250;38.102;2024-03-25T12:50:37;7.53;;;1.38;;
74945;SDS011;63509;45.250;38.102;2024-03-25T12:53:03;11.88;;;1.48;;
74945;SDS011;63509;45.250;38.102;2024-03-25T12:55:29;4.72;;;1.10;;
74945;SDS011;63509;45.250;38.102;2024-03-25T12:57:55;2.72;;;1.00;;
74945;SDS011;63509;45.250;38.102;2024-03-25T13:00:21;6.38;;;2.05;;
74945;SDS011;63509;45.250;38.102;2024-03-25T13:02:48;3.95;;;0.98;;
74945;SDS011;63509;45.250;38.102;2024-03-25T13:05:14;2.45;;;0.95;;
74945;SDS011;63509;45.250;38.102;2024-03-25T13:07:41;8.52;;;2.00;;
74945;SDS011;63509;45.250;38.102;2024-03-25T13:10:07;4.05;;;0.93;;
74945;SDS011;63509;45.250;38.102;2024-03-25T13:12:34;5.35;;;1.45;;
74945;SDS011;63509;45.250;38.102;2024-03-25T13:15:00;6.47;;;1.30;;
74945;SDS011;63509;45.250;38.102;2024-03-25T13:17:26;3.10;;;0.77;;
74945;SDS011;63509;45.250;38.102;2024-03-25T13:19:52;3.50;;;1.08;;
74945;SDS011;63509;45.250;38.102;2024-03-25T13:22:18;13.80;;;1.33;;
74945;SDS011;63509;45.250;38.102;2024-03-25T13:24:45;3.67;;;1.10;;
74945;SDS011;63509;45.250;38.102;2024-03-25T13:27:11;2.53;;;0.98;;
74945;SDS011;63509;45.250;38.102;2024-03-25T13:29:37;2.45;;;1.13;;
74945;SDS011;63509;45.250;38.102;2024-03-25T13:32:03;12.15;;;1.10;;
74945;SDS011;63509;45.250;38.102;2024-03-25T13:34:29;4.65;;;1.23;;
74945;SDS011;63509;45.250;38.102;2024-03-25T13:36:55;6.28;;;1.05;;
74945;SDS011;63509;45.250;38.102;2024-03-25T13:39:21;7.07;;;1.38;;
74945;SDS011;63509;45.250;38.102;2024-03-25T13:41:48;4.57;;;1.48;;
74945;SDS011;63509;45.250;38.102;2024-03-25T13:44:15;7.32;;;1.45;;
74945;SDS011;63509;45.250;38.102;2024-03-25T13:46:41;3.50;;;1.60;;
74945;SDS011;63509;45.250;38.102;2024-03-25T13:49:07;8.75;;;1.15;;
74945;SDS011;63509;45.250;38.102;2024-03-25T13:51:35;8.77;;;1.60;;
74945;SDS011;63509;45.250;38.102;2024-03-25T13:54:01;4.22;;;1.15;;
74945;SDS011;63509;45.250;38.102;2024-03-25T13:56:28;8.13;;;1.50;;
74945;SDS011;63509;45.250;38.102;2024-03-25T13:58:54;7.97;;;1.27;;
74945;SDS011;63509;45.250;38.102;2024-03-25T14:01:20;6.35;;;2.05;;
74945;SDS011;63509;45.250;38.102;2024-03-25T14:03:46;2.97;;;1.15;;
74945;SDS011;63509;45.250;38.102;2024-03-25T14:06:12;3.28;;;1.20;;
74945;SDS011;63509;45.250;38.102;2024-03-25T14:08:38;11.70;;;1.95;;
74945;SDS011;63509;45.250;38.102;2024-03-25T14:11:04;3.83;;;1.40;;
74945;SDS011;63509;45.250;38.102;2024-03-25T14:13:30;3.25;;;1.08;;
74945;SDS011;63509;45.250;38.102;2024-03-25T14:15:56;2.50;;;1.00;;
74945;SDS011;63509;45.250;38.102;2024-03-25T14:18:22;9.75;;;1.50;;
74945;SDS011;63509;45.250;38.102;2024-03-25T14:20:51;2.40;;;1.08;;
74945;SDS011;63509;45.250;38.102;2024-03-25T14:25:43;11.23;;;1.48;;
74945;SDS011;63509;45.250;38.102;2024-03-25T14:28:09;16.83;;;1.50;;
74945;SDS011;63509;45.250;38.102;2024-03-25T14:30:36;3.85;;;1.00;;
74945;SDS011;63509;45.250;38.102;2024-03-25T14:33:03;8.70;;;1.52;;
74945;SDS011;63509;45.250;38.102;2024-03-25T14:35:29;14.43;;;1.88;;
74945;SDS011;63509;45.250;38.102;2024-03-25T14:37:55;12.93;;;2.90;;
74945;SDS011;63509;45.250;38.102;2024-03-25T14:40:21;13.13;;;5.60;;
74945;SDS011;63509;45.250;38.102;2024-03-25T14:42:47;26.10;;;6.32;;
74945;SDS011;63509;45.250;38.102;2024-03-25T14:45:14;29.23;;;6.68;;
74945;SDS011;63509;45.250;38.102;2024-03-25T14:47:40;18.55;;;4.07;;
74945;SDS011;63509;45.250;38.102;2024-03-25T14:50:06;14.40;;;2.35;;